Bankfoot, United Kingdom
Current Conditions -  °F | °C
As of 11:50 AM on Sunday 25 Jan 2015 (Local Time) from EGPN Reporting Station
Scattered Clouds Scattered Clouds  
Wind Chill: 36°   Ceiling: Unl
Heat Index: 45°   Visibility: 6mi
Dew Point: 43°   Wind: 21mph
Humidity: 93%   Direction: 240°WSW
Pressure: 30.06"   Gusts: NA
Location:  56.5°N, 3.5°W
Report Text: EGPN 251150Z 24018KT 9999 FEW015 SCT019 07/06 Q1018
Loading
Personal Weather Stations






























Interactive Weather Map New forecast layout! Learn more

10-Day Weather Forecast

Advertisements
Track Severe Weather on mobile